Salt Lake City, Utah
Traffic Map
Current Weather Conditions
Salt Lake City, Utah
Broken Clouds
Broken Clouds
52°
Feels Like: 52°
Wind Chill: 52° Ceiling: 20000
Heat Index: 52° Visibility: 10mi
Dew Point: 46° Wind: 8mph
Humidity: 80% Direction: 140° (SE)
Pressure: 29.89in Gusts: 0mph
Raw Report DataKSLC 221053Z 14007KT 10SM FEW110 BKN200 11/08 A2989 RMK AO2 SLP094 T01110078
Traffic Incident Summary
Active as of:
Severity:
Category:
InformationThere was an issue retrieving the traffic information for this location. Please try a different location or try again shortly.
Advertisements
Track Severe Weather on mobile